sensor_id;sensor_type;location;lat;lon;timestamp;P1;durP1;ratioP1;P2;durP2;ratioP2
75456;SDS011;64036;48.266;14.192;2023-07-13T00:01:57;9.40;;;3.80;;
75456;SDS011;64036;48.266;14.192;2023-07-13T00:04:24;8.50;;;3.60;;
75456;SDS011;64036;48.266;14.192;2023-07-13T00:06:51;7.30;;;3.90;;
75456;SDS011;64036;48.266;14.192;2023-07-13T00:09:18;8.60;;;3.90;;
75456;SDS011;64036;48.266;14.192;2023-07-13T00:11:45;6.30;;;3.50;;
75456;SDS011;64036;48.266;14.192;2023-07-13T00:14:14;6.80;;;3.90;;
75456;SDS011;64036;48.266;14.192;2023-07-13T00:16:41;9.00;;;3.70;;
75456;SDS011;64036;48.266;14.192;2023-07-13T00:19:10;12.50;;;3.70;;
75456;SDS011;64036;48.266;14.192;2023-07-13T00:21:37;6.90;;;3.50;;
75456;SDS011;64036;48.266;14.192;2023-07-13T00:24:04;8.50;;;4.00;;
75456;SDS011;64036;48.266;14.192;2023-07-13T00:26:31;9.70;;;3.70;;
75456;SDS011;64036;48.266;14.192;2023-07-13T00:28:58;9.80;;;3.80;;
75456;SDS011;64036;48.266;14.192;2023-07-13T00:31:24;9.00;;;3.90;;
75456;SDS011;64036;48.266;14.192;2023-07-13T00:33:50;7.30;;;4.20;;
75456;SDS011;64036;48.266;14.192;2023-07-13T00:36:16;7.30;;;3.80;;
75456;SDS011;64036;48.266;14.192;2023-07-13T00:38:43;8.80;;;3.70;;
75456;SDS011;64036;48.266;14.192;2023-07-13T00:41:09;8.10;;;4.10;;
75456;SDS011;64036;48.266;14.192;2023-07-13T00:43:36;8.30;;;4.60;;
75456;SDS011;64036;48.266;14.192;2023-07-13T00:48:33;8.20;;;3.80;;
75456;SDS011;64036;48.266;14.192;2023-07-13T00:51:00;7.20;;;3.50;;
75456;SDS011;64036;48.266;14.192;2023-07-13T00:53:28;10.70;;;3.60;;
75456;SDS011;64036;48.266;14.192;2023-07-13T00:55:56;6.60;;;3.70;;
75456;SDS011;64036;48.266;14.192;2023-07-13T00:58:24;7.80;;;3.40;;
75456;SDS011;64036;48.266;14.192;2023-07-13T01:00:52;8.10;;;3.60;;
75456;SDS011;64036;48.266;14.192;2023-07-13T01:03:19;10.00;;;4.00;;
75456;SDS011;64036;48.266;14.192;2023-07-13T01:05:47;9.70;;;3.20;;
75456;SDS011;64036;48.266;14.192;2023-07-13T01:08:14;7.50;;;3.10;;
75456;SDS011;64036;48.266;14.192;2023-07-13T01:10:39;9.10;;;3.40;;
75456;SDS011;64036;48.266;14.192;2023-07-13T01:13:06;6.70;;;3.50;;
75456;SDS011;64036;48.266;14.192;2023-07-13T01:18:03;7.70;;;4.00;;
75456;SDS011;64036;48.266;14.192;2023-07-13T01:20:30;7.80;;;3.50;;
75456;SDS011;64036;48.266;14.192;2023-07-13T01:22:55;10.70;;;3.30;;
75456;SDS011;64036;48.266;14.192;2023-07-13T01:25:21;8.10;;;3.90;;
75456;SDS011;64036;48.266;14.192;2023-07-13T01:27:46;6.40;;;3.20;;
75456;SDS011;64036;48.266;14.192;2023-07-13T01:30:12;6.10;;;2.60;;
75456;SDS011;64036;48.266;14.192;2023-07-13T01:32:38;5.90;;;3.40;;
75456;SDS011;64036;48.266;14.192;2023-07-13T01:35:07;8.90;;;3.50;;
75456;SDS011;64036;48.266;14.192;2023-07-13T01:37:33;6.80;;;3.30;;
75456;SDS011;64036;48.266;14.192;2023-07-13T01:40:02;7.70;;;3.60;;
75456;SDS011;64036;48.266;14.192;2023-07-13T01:42:29;6.70;;;3.60;;
75456;SDS011;64036;48.266;14.192;2023-07-13T01:44:55;5.40;;;3.10;;
75456;SDS011;64036;48.266;14.192;2023-07-13T01:47:22;10.50;;;3.80;;
75456;SDS011;64036;48.266;14.192;2023-07-13T01:49:48;6.00;;;3.30;;
75456;SDS011;64036;48.266;14.192;2023-07-13T01:52:16;6.20;;;3.80;;
75456;SDS011;64036;48.266;14.192;2023-07-13T01:54:41;5.50;;;3.20;;
75456;SDS011;64036;48.266;14.192;2023-07-13T01:57:07;5.90;;;3.30;;
75456;SDS011;64036;48.266;14.192;2023-07-13T01:59:32;7.00;;;3.70;;
75456;SDS011;64036;48.266;14.192;2023-07-13T02:01:58;8.50;;;3.70;;
75456;SDS011;64036;48.266;14.192;2023-07-13T02:04:24;8.80;;;3.90;;
75456;SDS011;64036;48.266;14.192;2023-07-13T02:06:49;7.60;;;3.90;;
75456;SDS011;64036;48.266;14.192;2023-07-13T02:09:15;10.90;;;3.90;;
75456;SDS011;64036;48.266;14.192;2023-07-13T02:11:41;7.20;;;4.20;;
75456;SDS011;64036;48.266;14.192;2023-07-13T02:14:06;8.10;;;4.00;;
75456;SDS011;64036;48.266;14.192;2023-07-13T02:16:32;9.30;;;3.80;;
75456;SDS011;64036;48.266;14.192;2023-07-13T02:18:57;9.10;;;4.20;;
75456;SDS011;64036;48.266;14.192;2023-07-13T02:21:23;7.90;;;4.40;;
75456;SDS011;64036;48.266;14.192;2023-07-13T02:23:49;6.60;;;3.80;;
75456;SDS011;64036;48.266;14.192;2023-07-13T02:26:15;5.90;;;3.70;;
75456;SDS011;64036;48.266;14.192;2023-07-13T02:28:41;10.20;;;4.00;;
75456;SDS011;64036;48.266;14.192;2023-07-13T02:31:09;6.90;;;4.30;;
75456;SDS011;64036;48.266;14.192;2023-07-13T02:33:35;6.30;;;4.10;;
75456;SDS011;64036;48.266;14.192;2023-07-13T02:36:01;7.40;;;4.20;;
75456;SDS011;64036;48.266;14.192;2023-07-13T02:38:28;9.60;;;4.30;;
75456;SDS011;64036;48.266;14.192;2023-07-13T02:40:54;8.80;;;4.10;;
75456;SDS011;64036;48.266;14.192;2023-07-13T02:43:19;7.20;;;4.20;;
75456;SDS011;64036;48.266;14.192;2023-07-13T02:45:46;8.50;;;4.60;;
75456;SDS011;64036;48.266;14.192;2023-07-13T02:48:13;9.70;;;4.70;;
75456;SDS011;64036;48.266;14.192;2023-07-13T02:50:39;8.40;;;4.40;;
75456;SDS011;64036;48.266;14.192;2023-07-13T02:53:05;7.00;;;3.90;;
75456;SDS011;64036;48.266;14.192;2023-07-13T02:55:30;8.10;;;4.40;;
75456;SDS011;64036;48.266;14.192;2023-07-13T02:57:56;7.60;;;4.20;;
75456;SDS011;64036;48.266;14.192;2023-07-13T03:00:23;8.00;;;4.20;;
75456;SDS011;64036;48.266;14.192;2023-07-13T03:02:49;7.50;;;4.00;;
75456;SDS011;64036;48.266;14.192;2023-07-13T03:05:15;8.50;;;4.40;;
75456;SDS011;64036;48.266;14.192;2023-07-13T03:07:41;9.20;;;4.60;;
75456;SDS011;64036;48.266;14.192;2023-07-13T03:10:08;8.10;;;4.20;;
75456;SDS011;64036;48.266;14.192;2023-07-13T03:12:34;6.30;;;4.10;;
75456;SDS011;64036;48.266;14.192;2023-07-13T03:15:00;7.20;;;4.00;;
75456;SDS011;64036;48.266;14.192;2023-07-13T03:17:25;8.90;;;4.10;;
75456;SDS011;64036;48.266;14.192;2023-07-13T03:19:51;9.10;;;4.60;;
75456;SDS011;64036;48.266;14.192;2023-07-13T03:22:17;7.10;;;3.90;;
75456;SDS011;64036;48.266;14.192;2023-07-13T03:24:44;6.80;;;4.20;;
75456;SDS011;64036;48.266;14.192;2023-07-13T03:27:10;5.50;;;3.90;;
75456;SDS011;64036;48.266;14.192;2023-07-13T03:29:36;8.10;;;3.90;;
75456;SDS011;64036;48.266;14.192;2023-07-13T03:32:01;7.10;;;3.80;;
75456;SDS011;64036;48.266;14.192;2023-07-13T03:34:27;6.80;;;3.60;;
75456;SDS011;64036;48.266;14.192;2023-07-13T03:36:56;6.80;;;3.90;;
75456;SDS011;64036;48.266;14.192;2023-07-13T03:39:22;7.90;;;3.60;;
75456;SDS011;64036;48.266;14.192;2023-07-13T03:41:48;6.10;;;3.60;;
75456;SDS011;64036;48.266;14.192;2023-07-13T03:44:16;8.90;;;3.60;;
75456;SDS011;64036;48.266;14.192;2023-07-13T03:46:43;6.30;;;3.10;;
75456;SDS011;64036;48.266;14.192;2023-07-13T03:49:10;6.10;;;3.20;;
75456;SDS011;64036;48.266;14.192;2023-07-13T03:51:36;6.60;;;3.30;;
75456;SDS011;64036;48.266;14.192;2023-07-13T03:54:02;8.10;;;3.40;;
75456;SDS011;64036;48.266;14.192;2023-07-13T03:56:28;6.00;;;3.50;;
75456;SDS011;64036;48.266;14.192;2023-07-13T03:58:54;5.50;;;3.40;;
75456;SDS011;64036;48.266;14.192;2023-07-13T04:01:21;7.70;;;4.00;;
75456;SDS011;64036;48.266;14.192;2023-07-13T04:03:48;8.00;;;4.00;;
75456;SDS011;64036;48.266;14.192;2023-07-13T04:06:18;6.80;;;3.60;;
75456;SDS011;64036;48.266;14.192;2023-07-13T04:08:53;7.30;;;3.90;;
75456;SDS011;64036;48.266;14.192;2023-07-13T04:11:21;8.70;;;4.10;;
75456;SDS011;64036;48.266;14.192;2023-07-13T04:13:50;7.30;;;3.90;;
75456;SDS011;64036;48.266;14.192;2023-07-13T04:16:17;6.70;;;3.80;;
75456;SDS011;64036;48.266;14.192;2023-07-13T04:18:44;7.50;;;3.60;;
75456;SDS011;64036;48.266;14.192;2023-07-13T04:21:11;11.00;;;3.90;;
75456;SDS011;64036;48.266;14.192;2023-07-13T04:23:38;8.30;;;3.30;;
75456;SDS011;64036;48.266;14.192;2023-07-13T04:26:04;7.20;;;3.40;;
75456;SDS011;64036;48.266;14.192;2023-07-13T04:28:30;7.60;;;3.50;;
75456;SDS011;64036;48.266;14.192;2023-07-13T04:30:56;7.60;;;3.70;;
75456;SDS011;64036;48.266;14.192;2023-07-13T04:33:22;7.20;;;3.90;;
75456;SDS011;64036;48.266;14.192;2023-07-13T04:35:49;8.20;;;3.80;;
75456;SDS011;64036;48.266;14.192;2023-07-13T04:38:22;9.10;;;4.10;;
75456;SDS011;64036;48.266;14.192;2023-07-13T04:40:56;9.50;;;3.80;;
75456;SDS011;64036;48.266;14.192;2023-07-13T04:43:23;8.00;;;3.80;;
75456;SDS011;64036;48.266;14.192;2023-07-13T04:45:51;10.20;;;4.30;;
75456;SDS011;64036;48.266;14.192;2023-07-13T04:48:17;8.40;;;3.80;;
75456;SDS011;64036;48.266;14.192;2023-07-13T04:50:43;11.50;;;4.00;;
75456;SDS011;64036;48.266;14.192;2023-07-13T04:53:09;8.40;;;3.80;;
75456;SDS011;64036;48.266;14.192;2023-07-13T04:55:36;7.00;;;3.90;;
75456;SDS011;64036;48.266;14.192;2023-07-13T04:58:02;6.40;;;3.60;;
75456;SDS011;64036;48.266;14.192;2023-07-13T05:00:29;5.90;;;3.60;;
75456;SDS011;64036;48.266;14.192;2023-07-13T05:02:56;5.00;;;3.50;;
75456;SDS011;64036;48.266;14.192;2023-07-13T05:05:24;8.00;;;3.60;;
75456;SDS011;64036;48.266;14.192;2023-07-13T05:07:51;6.30;;;4.00;;
75456;SDS011;64036;48.266;14.192;2023-07-13T05:10:17;10.40;;;4.00;;
75456;SDS011;64036;48.266;14.192;2023-07-13T05:12:43;7.40;;;3.70;;
75456;SDS011;64036;48.266;14.192;2023-07-13T05:15:09;7.10;;;3.80;;
75456;SDS011;64036;48.266;14.192;2023-07-13T05:17:35;6.70;;;4.10;;
75456;SDS011;64036;48.266;14.192;2023-07-13T05:20:01;8.90;;;4.10;;
75456;SDS011;64036;48.266;14.192;2023-07-13T05:22:26;6.60;;;3.70;;
75456;SDS011;64036;48.266;14.192;2023-07-13T05:24:52;8.60;;;4.10;;
75456;SDS011;64036;48.266;14.192;2023-07-13T05:27:17;6.50;;;3.50;;
75456;SDS011;64036;48.266;14.192;2023-07-13T05:29:43;7.10;;;3.80;;
75456;SDS011;64036;48.266;14.192;2023-07-13T05:32:09;9.20;;;3.70;;
75456;SDS011;64036;48.266;14.192;2023-07-13T05:34:35;6.30;;;3.80;;
75456;SDS011;64036;48.266;14.192;2023-07-13T05:37:00;8.50;;;3.70;;
75456;SDS011;64036;48.266;14.192;2023-07-13T05:39:26;7.30;;;4.10;;
75456;SDS011;64036;48.266;14.192;2023-07-13T05:41:53;12.20;;;4.40;;
75456;SDS011;64036;48.266;14.192;2023-07-13T05:44:18;6.70;;;3.80;;
75456;SDS011;64036;48.266;14.192;2023-07-13T05:46:44;6.40;;;4.00;;
75456;SDS011;64036;48.266;14.192;2023-07-13T05:49:10;6.00;;;3.50;;
75456;SDS011;64036;48.266;14.192;2023-07-13T05:51:36;6.80;;;4.20;;
75456;SDS011;64036;48.266;14.192;2023-07-13T05:54:02;8.00;;;4.00;;
75456;SDS011;64036;48.266;14.192;2023-07-13T05:56:28;9.60;;;4.10;;
75456;SDS011;64036;48.266;14.192;2023-07-13T05:58:54;7.30;;;4.10;;
75456;SDS011;64036;48.266;14.192;2023-07-13T06:01:19;8.20;;;4.00;;
75456;SDS011;64036;48.266;14.192;2023-07-13T06:03:47;6.10;;;3.80;;
75456;SDS011;64036;48.266;14.192;2023-07-13T06:06:14;7.00;;;4.30;;
75456;SDS011;64036;48.266;14.192;2023-07-13T06:08:40;10.00;;;4.40;;
75456;SDS011;64036;48.266;14.192;2023-07-13T06:11:15;10.90;;;4.60;;
75456;SDS011;64036;48.266;14.192;2023-07-13T06:13:42;6.20;;;4.00;;
75456;SDS011;64036;48.266;14.192;2023-07-13T06:16:08;8.50;;;4.10;;
75456;SDS011;64036;48.266;14.192;2023-07-13T06:18:35;7.90;;;4.10;;
75456;SDS011;64036;48.266;14.192;2023-07-13T06:21:12;6.40;;;3.80;;
75456;SDS011;64036;48.266;14.192;2023-07-13T06:23:39;5.50;;;3.70;;
75456;SDS011;64036;48.266;14.192;2023-07-13T06:26:06;7.10;;;4.10;;
75456;SDS011;64036;48.266;14.192;2023-07-13T06:28:32;6.70;;;3.80;;
75456;SDS011;64036;48.266;14.192;2023-07-13T06:30:58;7.20;;;3.40;;
75456;SDS011;64036;48.266;14.192;2023-07-13T06:33:25;7.20;;;4.10;;
75456;SDS011;64036;48.266;14.192;2023-07-13T06:35:52;7.60;;;4.00;;
75456;SDS011;64036;48.266;14.192;2023-07-13T06:38:18;7.90;;;4.10;;
75456;SDS011;64036;48.266;14.192;2023-07-13T06:40:44;6.80;;;3.90;;
75456;SDS011;64036;48.266;14.192;2023-07-13T06:43:09;8.30;;;4.20;;
75456;SDS011;64036;48.266;14.192;2023-07-13T06:45:40;8.80;;;4.60;;
75456;SDS011;64036;48.266;14.192;2023-07-13T06:48:18;8.40;;;4.60;;
75456;SDS011;64036;48.266;14.192;2023-07-13T06:50:45;7.60;;;4.20;;
75456;SDS011;64036;48.266;14.192;2023-07-13T06:53:12;6.60;;;4.10;;
75456;SDS011;64036;48.266;14.192;2023-07-13T06:55:38;6.10;;;3.80;;
75456;SDS011;64036;48.266;14.192;2023-07-13T06:58:05;6.00;;;3.50;;
75456;SDS011;64036;48.266;14.192;2023-07-13T07:00:31;7.20;;;3.60;;
75456;SDS011;64036;48.266;14.192;2023-07-13T07:02:57;9.50;;;3.60;;
75456;SDS011;64036;48.266;14.192;2023-07-13T07:05:23;7.70;;;3.50;;
75456;SDS011;64036;48.266;14.192;2023-07-13T07:07:54;7.10;;;3.10;;
75456;SDS011;64036;48.266;14.192;2023-07-13T07:10:20;5.00;;;3.00;;
75456;SDS011;64036;48.266;14.192;2023-07-13T07:12:46;5.90;;;2.80;;
75456;SDS011;64036;48.266;14.192;2023-07-13T07:15:12;6.00;;;2.80;;
75456;SDS011;64036;48.266;14.192;2023-07-13T07:17:38;5.10;;;2.80;;
75456;SDS011;64036;48.266;14.192;2023-07-13T07:20:04;5.00;;;2.50;;
75456;SDS011;64036;48.266;14.192;2023-07-13T07:22:31;4.40;;;2.60;;
75456;SDS011;64036;48.266;14.192;2023-07-13T07:24:57;4.60;;;2.20;;
75456;SDS011;64036;48.266;14.192;2023-07-13T07:27:23;4.50;;;2.10;;
75456;SDS011;64036;48.266;14.192;2023-07-13T07:29:49;4.20;;;2.20;;
75456;SDS011;64036;48.266;14.192;2023-07-13T07:32:15;3.90;;;2.10;;
75456;SDS011;64036;48.266;14.192;2023-07-13T07:34:40;3.80;;;2.10;;
75456;SDS011;64036;48.266;14.192;2023-07-13T07:37:06;3.60;;;2.00;;
75456;SDS011;64036;48.266;14.192;2023-07-13T07:39:32;3.20;;;2.00;;
75456;SDS011;64036;48.266;14.192;2023-07-13T07:41:58;4.00;;;2.00;;
75456;SDS011;64036;48.266;14.192;2023-07-13T07:44:23;3.60;;;2.20;;
75456;SDS011;64036;48.266;14.192;2023-07-13T07:46:49;4.90;;;2.10;;
75456;SDS011;64036;48.266;14.192;2023-07-13T07:49:15;3.70;;;2.10;;
75456;SDS011;64036;48.266;14.192;2023-07-13T07:51:41;4.50;;;2.00;;
75456;SDS011;64036;48.266;14.192;2023-07-13T07:54:06;3.80;;;2.20;;
75456;SDS011;64036;48.266;14.192;2023-07-13T07:56:32;3.90;;;2.00;;
75456;SDS011;64036;48.266;14.192;2023-07-13T07:58:58;4.40;;;2.20;;
75456;SDS011;64036;48.266;14.192;2023-07-13T08:01:24;3.30;;;2.10;;
75456;SDS011;64036;48.266;14.192;2023-07-13T08:03:49;4.10;;;2.40;;
75456;SDS011;64036;48.266;14.192;2023-07-13T08:06:15;5.80;;;2.30;;
75456;SDS011;64036;48.266;14.192;2023-07-13T08:08:41;6.20;;;2.50;;
75456;SDS011;64036;48.266;14.192;2023-07-13T08:11:08;4.70;;;2.70;;
75456;SDS011;64036;48.266;14.192;2023-07-13T08:13:34;4.20;;;2.30;;
75456;SDS011;64036;48.266;14.192;2023-07-13T08:16:01;4.10;;;2.40;;
75456;SDS011;64036;48.266;14.192;2023-07-13T08:18:29;5.60;;;2.60;;
75456;SDS011;64036;48.266;14.192;2023-07-13T08:20:54;5.00;;;2.10;;
75456;SDS011;64036;48.266;14.192;2023-07-13T08:23:25;5.10;;;2.50;;
75456;SDS011;64036;48.266;14.192;2023-07-13T08:25:52;8.90;;;2.50;;
75456;SDS011;64036;48.266;14.192;2023-07-13T08:28:19;5.70;;;2.30;;
75456;SDS011;64036;48.266;14.192;2023-07-13T08:30:46;5.50;;;2.40;;
75456;SDS011;64036;48.266;14.192;2023-07-13T08:33:16;5.20;;;2.60;;
75456;SDS011;64036;48.266;14.192;2023-07-13T08:35:45;5.40;;;2.50;;
75456;SDS011;64036;48.266;14.192;2023-07-13T08:38:12;4.20;;;2.10;;
75456;SDS011;64036;48.266;14.192;2023-07-13T08:40:39;5.30;;;2.30;;
75456;SDS011;64036;48.266;14.192;2023-07-13T08:43:09;4.40;;;2.60;;
75456;SDS011;64036;48.266;14.192;2023-07-13T08:45:47;4.90;;;2.50;;
75456;SDS011;64036;48.266;14.192;2023-07-13T08:48:26;7.60;;;2.60;;
75456;SDS011;64036;48.266;14.192;2023-07-13T08:51:00;6.80;;;2.70;;
75456;SDS011;64036;48.266;14.192;2023-07-13T08:53:37;5.50;;;2.60;;
75456;SDS011;64036;48.266;14.192;2023-07-13T08:56:11;5.90;;;2.60;;
75456;SDS011;64036;48.266;14.192;2023-07-13T08:58:56;5.40;;;2.50;;
75456;SDS011;64036;48.266;14.192;2023-07-13T09:01:53;4.40;;;2.40;;
75456;SDS011;64036;48.266;14.192;2023-07-13T09:05:04;4.60;;;2.50;;
75456;SDS011;64036;48.266;14.192;2023-07-13T09:10:23;7.00;;;2.80;;
75456;SDS011;64036;48.266;14.192;2023-07-13T09:15:39;4.50;;;2.40;;
75456;SDS011;64036;48.266;14.192;2023-07-13T09:18:10;5.60;;;2.70;;
75456;SDS011;64036;48.266;14.192;2023-07-13T09:20:49;5.20;;;2.60;;
75456;SDS011;64036;48.266;14.192;2023-07-13T09:23:22;6.60;;;2.60;;
75456;SDS011;64036;48.266;14.192;2023-07-13T09:25:53;4.50;;;2.50;;
75456;SDS011;64036;48.266;14.192;2023-07-13T09:28:35;4.40;;;2.70;;
75456;SDS011;64036;48.266;14.192;2023-07-13T09:33:50;3.80;;;2.30;;
75456;SDS011;64036;48.266;14.192;2023-07-13T09:38:43;6.10;;;2.70;;
75456;SDS011;64036;48.266;14.192;2023-07-13T09:41:26;3.50;;;2.20;;
75456;SDS011;64036;48.266;14.192;2023-07-13T09:44:18;5.20;;;2.40;;
75456;SDS011;64036;48.266;14.192;2023-07-13T09:46:56;4.10;;;2.50;;
75456;SDS011;64036;48.266;14.192;2023-07-13T09:49:31;6.00;;;2.70;;
75456;SDS011;64036;48.266;14.192;2023-07-13T09:52:03;5.20;;;2.60;;
75456;SDS011;64036;48.266;14.192;2023-07-13T09:54:34;4.60;;;2.30;;
75456;SDS011;64036;48.266;14.192;2023-07-13T09:57:03;3.80;;;2.40;;
75456;SDS011;64036;48.266;14.192;2023-07-13T09:59:40;3.50;;;2.20;;
75456;SDS011;64036;48.266;14.192;2023-07-13T10:02:30;4.90;;;2.40;;
75456;SDS011;64036;48.266;14.192;2023-07-13T10:07:32;3.60;;;2.30;;
75456;SDS011;64036;48.266;14.192;2023-07-13T10:10:02;6.10;;;2.50;;
75456;SDS011;64036;48.266;14.192;2023-07-13T10:12:29;4.60;;;2.00;;
75456;SDS011;64036;48.266;14.192;2023-07-13T10:15:00;3.80;;;2.50;;
75456;SDS011;64036;48.266;14.192;2023-07-13T10:17:29;4.50;;;2.20;;
75456;SDS011;64036;48.266;14.192;2023-07-13T10:20:02;4.50;;;2.50;;
75456;SDS011;64036;48.266;14.192;2023-07-13T10:25:21;5.30;;;2.70;;
75456;SDS011;64036;48.266;14.192;2023-07-13T10:27:51;4.80;;;2.70;;
75456;SDS011;64036;48.266;14.192;2023-07-13T10:32:51;3.70;;;2.40;;
75456;SDS011;64036;48.266;14.192;2023-07-13T10:35:19;4.10;;;2.20;;
75456;SDS011;64036;48.266;14.192;2023-07-13T10:37:59;3.40;;;2.30;;
75456;SDS011;64036;48.266;14.192;2023-07-13T10:40:40;4.60;;;2.30;;
75456;SDS011;64036;48.266;14.192;2023-07-13T10:43:22;6.60;;;2.80;;
75456;SDS011;64036;48.266;14.192;2023-07-13T10:45:52;4.40;;;2.10;;
75456;SDS011;64036;48.266;14.192;2023-07-13T10:48:21;5.20;;;2.60;;
75456;SDS011;64036;48.266;14.192;2023-07-13T10:50:51;4.90;;;2.40;;
75456;SDS011;64036;48.266;14.192;2023-07-13T10:53:31;3.80;;;2.40;;
75456;SDS011;64036;48.266;14.192;2023-07-13T10:58:39;4.30;;;2.40;;
75456;SDS011;64036;48.266;14.192;2023-07-13T11:03:54;5.30;;;2.20;;
75456;SDS011;64036;48.266;14.192;2023-07-13T11:21:31;5.80;;;2.20;;
75456;SDS011;64036;48.266;14.192;2023-07-13T11:31:58;4.10;;;2.10;;
75456;SDS011;64036;48.266;14.192;2023-07-13T11:34:38;4.90;;;2.00;;
75456;SDS011;64036;48.266;14.192;2023-07-13T11:37:11;3.50;;;2.10;;
75456;SDS011;64036;48.266;14.192;2023-07-13T11:39:41;3.00;;;1.90;;
75456;SDS011;64036;48.266;14.192;2023-07-13T11:42:18;3.20;;;1.90;;
75456;SDS011;64036;48.266;14.192;2023-07-13T11:44:51;3.00;;;1.60;;
75456;SDS011;64036;48.266;14.192;2023-07-13T11:47:21;3.20;;;1.80;;
75456;SDS011;64036;48.266;14.192;2023-07-13T11:49:53;2.90;;;2.10;;
75456;SDS011;64036;48.266;14.192;2023-07-13T11:52:25;2.90;;;1.90;;
75456;SDS011;64036;48.266;14.192;2023-07-13T11:55:01;4.30;;;2.10;;
75456;SDS011;64036;48.266;14.192;2023-07-13T11:57:32;4.60;;;1.90;;
75456;SDS011;64036;48.266;14.192;2023-07-13T12:00:09;4.90;;;2.10;;
75456;SDS011;64036;48.266;14.192;2023-07-13T12:02:46;2.80;;;1.70;;
75456;SDS011;64036;48.266;14.192;2023-07-13T12:05:16;4.20;;;2.20;;
75456;SDS011;64036;48.266;14.192;2023-07-13T12:07:43;2.90;;;1.80;;
75456;SDS011;64036;48.266;14.192;2023-07-13T12:10:19;3.90;;;2.00;;
75456;SDS011;64036;48.266;14.192;2023-07-13T12:13:02;4.00;;;1.70;;
75456;SDS011;64036;48.266;14.192;2023-07-13T12:15:43;5.60;;;2.30;;
75456;SDS011;64036;48.266;14.192;2023-07-13T12:18:19;4.50;;;2.20;;
75456;SDS011;64036;48.266;14.192;2023-07-13T12:20:47;4.10;;;2.00;;
75456;SDS011;64036;48.266;14.192;2023-07-13T12:25:54;3.90;;;1.90;;
75456;SDS011;64036;48.266;14.192;2023-07-13T12:31:05;3.40;;;2.00;;
75456;SDS011;64036;48.266;14.192;2023-07-13T12:33:33;4.10;;;1.90;;
75456;SDS011;64036;48.266;14.192;2023-07-13T12:36:05;5.00;;;2.20;;
75456;SDS011;64036;48.266;14.192;2023-07-13T12:38:32;2.80;;;1.90;;
75456;SDS011;64036;48.266;14.192;2023-07-13T12:40:58;3.30;;;1.80;;
75456;SDS011;64036;48.266;14.192;2023-07-13T12:43:25;2.80;;;1.70;;
75456;SDS011;64036;48.266;14.192;2023-07-13T12:46:01;5.50;;;2.00;;
75456;SDS011;64036;48.266;14.192;2023-07-13T12:48:38;4.80;;;1.80;;
75456;SDS011;64036;48.266;14.192;2023-07-13T12:51:10;4.10;;;1.90;;
75456;SDS011;64036;48.266;14.192;2023-07-13T12:53:49;4.60;;;1.90;;
75456;SDS011;64036;48.266;14.192;2023-07-13T12:56:25;2.90;;;1.80;;
75456;SDS011;64036;48.266;14.192;2023-07-13T12:59:01;3.30;;;1.90;;
75456;SDS011;64036;48.266;14.192;2023-07-13T13:01:31;4.50;;;2.10;;
75456;SDS011;64036;48.266;14.192;2023-07-13T13:04:01;4.20;;;2.00;;
75456;SDS011;64036;48.266;14.192;2023-07-13T13:06:32;3.70;;;2.00;;
75456;SDS011;64036;48.266;14.192;2023-07-13T13:09:01;2.70;;;1.80;;
75456;SDS011;64036;48.266;14.192;2023-07-13T13:11:30;5.00;;;2.10;;
75456;SDS011;64036;48.266;14.192;2023-07-13T13:13:56;3.90;;;2.30;;
75456;SDS011;64036;48.266;14.192;2023-07-13T13:18:51;4.10;;;2.30;;
75456;SDS011;64036;48.266;14.192;2023-07-13T13:21:18;4.70;;;2.00;;
75456;SDS011;64036;48.266;14.192;2023-07-13T13:23:46;3.90;;;2.00;;
75456;SDS011;64036;48.266;14.192;2023-07-13T13:26:14;4.50;;;1.90;;
75456;SDS011;64036;48.266;14.192;2023-07-13T13:31:10;4.00;;;1.90;;
75456;SDS011;64036;48.266;14.192;2023-07-13T13:33:42;3.90;;;1.90;;
75456;SDS011;64036;48.266;14.192;2023-07-13T13:36:18;3.90;;;1.90;;
75456;SDS011;64036;48.266;14.192;2023-07-13T13:38:46;3.50;;;2.00;;
75456;SDS011;64036;48.266;14.192;2023-07-13T13:41:14;3.40;;;1.90;;
75456;SDS011;64036;48.266;14.192;2023-07-13T13:43:41;3.50;;;1.90;;
75456;SDS011;64036;48.266;14.192;2023-07-13T13:46:17;4.70;;;2.10;;
75456;SDS011;64036;48.266;14.192;2023-07-13T13:48:44;4.00;;;2.00;;
75456;SDS011;64036;48.266;14.192;2023-07-13T13:51:19;3.10;;;1.90;;
75456;SDS011;64036;48.266;14.192;2023-07-13T13:53:49;4.00;;;1.90;;
75456;SDS011;64036;48.266;14.192;2023-07-13T13:56:15;4.60;;;2.00;;
75456;SDS011;64036;48.266;14.192;2023-07-13T13:58:43;3.40;;;1.80;;
75456;SDS011;64036;48.266;14.192;2023-07-13T14:01:19;4.80;;;2.00;;
75456;SDS011;64036;48.266;14.192;2023-07-13T14:03:45;5.40;;;2.10;;
75456;SDS011;64036;48.266;14.192;2023-07-13T14:06:15;4.00;;;1.70;;
75456;SDS011;64036;48.266;14.192;2023-07-13T14:08:42;5.10;;;2.00;;
75456;SDS011;64036;48.266;14.192;2023-07-13T14:11:16;3.40;;;2.00;;
75456;SDS011;64036;48.266;14.192;2023-07-13T14:13:49;3.80;;;2.00;;
75456;SDS011;64036;48.266;14.192;2023-07-13T14:16:19;4.10;;;1.90;;
75456;SDS011;64036;48.266;14.192;2023-07-13T14:18:47;3.40;;;1.80;;
75456;SDS011;64036;48.266;14.192;2023-07-13T14:21:16;4.80;;;1.50;;
75456;SDS011;64036;48.266;14.192;2023-07-13T14:23:45;2.90;;;1.60;;
75456;SDS011;64036;48.266;14.192;2023-07-13T14:26:14;4.50;;;1.60;;
75456;SDS011;64036;48.266;14.192;2023-07-13T14:28:43;2.40;;;1.50;;
75456;SDS011;64036;48.266;14.192;2023-07-13T14:31:12;4.50;;;1.90;;
75456;SDS011;64036;48.266;14.192;2023-07-13T14:33:39;3.40;;;1.60;;
75456;SDS011;64036;48.266;14.192;2023-07-13T14:38:46;3.00;;;1.70;;
75456;SDS011;64036;48.266;14.192;2023-07-13T14:41:26;4.70;;;1.60;;
75456;SDS011;64036;48.266;14.192;2023-07-13T14:43:52;7.20;;;1.60;;
75456;SDS011;64036;48.266;14.192;2023-07-13T14:46:32;5.40;;;1.70;;
75456;SDS011;64036;48.266;14.192;2023-07-13T14:49:06;3.80;;;1.70;;
75456;SDS011;64036;48.266;14.192;2023-07-13T14:51:52;4.20;;;1.90;;
75456;SDS011;64036;48.266;14.192;2023-07-13T14:54:18;4.00;;;1.70;;
75456;SDS011;64036;48.266;14.192;2023-07-13T14:56:44;3.70;;;1.60;;
75456;SDS011;64036;48.266;14.192;2023-07-13T14:59:09;3.40;;;1.50;;
75456;SDS011;64036;48.266;14.192;2023-07-13T15:01:40;4.00;;;1.40;;
75456;SDS011;64036;48.266;14.192;2023-07-13T15:04:06;3.50;;;1.60;;
75456;SDS011;64036;48.266;14.192;2023-07-13T15:06:58;2.30;;;1.40;;
75456;SDS011;64036;48.266;14.192;2023-07-13T15:09:27;2.60;;;1.60;;
75456;SDS011;64036;48.266;14.192;2023-07-13T15:11:55;2.90;;;1.70;;
75456;SDS011;64036;48.266;14.192;2023-07-13T15:14:22;3.90;;;1.70;;
75456;SDS011;64036;48.266;14.192;2023-07-13T15:16:51;6.20;;;1.70;;
75456;SDS011;64036;48.266;14.192;2023-07-13T15:19:18;3.20;;;1.70;;
75456;SDS011;64036;48.266;14.192;2023-07-13T15:21:46;3.00;;;1.80;;
75456;SDS011;64036;48.266;14.192;2023-07-13T15:24:13;4.40;;;1.90;;
75456;SDS011;64036;48.266;14.192;2023-07-13T15:26:39;4.20;;;1.50;;
75456;SDS011;64036;48.266;14.192;2023-07-13T15:29:05;3.10;;;1.40;;
75456;SDS011;64036;48.266;14.192;2023-07-13T15:31:32;3.50;;;1.60;;
75456;SDS011;64036;48.266;14.192;2023-07-13T15:33:59;2.60;;;1.60;;
75456;SDS011;64036;48.266;14.192;2023-07-13T15:36:26;2.40;;;1.40;;
75456;SDS011;64036;48.266;14.192;2023-07-13T15:38:54;3.00;;;1.60;;
75456;SDS011;64036;48.266;14.192;2023-07-13T15:41:25;3.90;;;1.70;;
75456;SDS011;64036;48.266;14.192;2023-07-13T15:43:57;2.70;;;1.50;;
75456;SDS011;64036;48.266;14.192;2023-07-13T15:46:27;2.10;;;1.50;;
75456;SDS011;64036;48.266;14.192;2023-07-13T15:48:54;4.10;;;1.80;;